Provident City, Texas
Current Conditions -  °F | °C
As of 12:55 PM on Monday 20 Oct 2014 (Local Time) from KARM Reporting Station
Scattered Clouds Scattered Clouds  
Wind Chill: 82°   Ceiling: Unl
Heat Index: 83°   Visibility: 10mi
Dew Point: 63°   Wind: 7mph
Humidity: 53%   Direction: 50°NE
Pressure: 30.04"   Gusts: 16mph
Location:  29.1804°N, 96.4231°W
Report Text: KARM 201755Z AUTO 05006G14KT 10SM SCT036 28/17 A3004 RMK AO2 6//// T02760171
Loading
Personal Weather Stations






























Interactive Weather Map
Tropical Storm Tracking
New forecast layout! Learn more

10-Day Weather Forecast

Advertisements
Track Severe Weather on mobile